F/V Attalaya Berria — FHCB — position and weather

sailwx.info

Track history (hours):
 
Tides and Currents Weather Stations Pressure Air Temp Water Temp Dewpoint Dewpoint Depression Visibility Wind Speed Wind Dir Waves Ship Positions

F/V Attalaya Berria

Last reported at 2014-Aug-01 15:14 UTC. Time now 2014-Aug-01 22:41 UTC.
Position N 43°23' W 001°48'.

Length 26 m.

Type: Fishing. MMSI: 228315000.

Date/timePositionNaut miles runAvg speedWind from/ knotsBaromVisibWave heightAir tempDewpointWater temp
2014-Aug-01 15:14N 43°23' W 001°48'0 0.0
2014-Aug-01 04:26N 43°23' W 001°47'0 0.2
2014-Aug-01 03:32N 43°23' W 001°47'0 0.2
2014-Aug-01 02:34N 43°23' W 001°47'0 0.1
2014-Aug-01 01:32N 43°23' W 001°47'0 0.4
2014-Aug-01 00:33N 43°23' W 001°47'0 0.0
2014-Jul-31 23:34N 43°23' W 001°47'0 0.0
2014-Jul-31 22:34N 43°23' W 001°47'0 0.0
2014-Jul-31 21:33N 43°23' W 001°47'0 0.0
2014-Jul-31 20:33N 43°23' W 001°47'0 0.0
2014-Jul-31 19:33N 43°23' W 001°47'0 0.1
2014-Jul-31 18:32N 43°23' W 001°47'5 4.0
2014-Jul-31 17:10N 43°23' W 001°40'0 0.1
2014-Jul-31 16:33N 43°23' W 001°40'1 0.9
2014-Jul-31 15:32N 43°24' W 001°41'6 6.0
2014-Jul-31 14:32N 43°30' W 001°39'6 0.8
2014-Jul-31 06:24N 43°25' W 001°46'5 3.8
2014-Jul-31 05:08N 43°23' W 001°40'0 0.1
2014-Jul-31 04:30N 43°23' W 001°40'0 0.4
2014-Jul-31 03:33N 43°23' W 001°40'5 5.2
2014-Jul-31 02:34N 43°23' W 001°47'0 0.3
2014-Jul-31 01:33N 43°23' W 001°47'0 0.2
2014-Jul-31 00:33N 43°23' W 001°47'0 0.1
2014-Jul-30 23:31N 43°23' W 001°47'0 0.0
2014-Jul-30 22:33N 43°23' W 001°47'0 0.0
2014-Jul-30 21:33N 43°23' W 001°47'0 0.0
2014-Jul-30 20:32N 43°23' W 001°47'  
2014-Jul-28 05:33N 43°23' W 001°47'  
2014-Jul-24 05:33N 43°24' W 001°49'6 1.8
2014-Jul-24 02:07N 43°28' W 001°42'1 1.1
2014-Jul-24 01:33N 43°28' W 001°42'5 4.9
2014-Jul-24 00:33N 43°30' W 001°36'1 0.6
2014-Jul-23 23:33N 43°31' W 001°35'0 0.3
2014-Jul-23 22:33N 43°31' W 001°35'1 0.5
2014-Jul-23 21:33N 43°30' W 001°35'4 1.5
2014-Jul-23 19:12N 43°28' W 001°39'3 5.2
2014-Jul-23 18:33N 43°26' W 001°43'4 0.4
2014-Jul-23 08:33N 43°23' W 001°47'2 0.3
2014-Jul-23 03:05N 43°25' W 001°48'510.1
2014-Jul-23 02:32N 43°28' W 001°42'0 0.4
2014-Jul-23 01:33N 43°28' W 001°41'0 0.3
2014-Jul-23 00:33N 43°28' W 001°42'2 1.8
2014-Jul-22 23:33N 43°26' W 001°40'5 4.6
2014-Jul-22 22:33N 43°29' W 001°36'2 1.9
2014-Jul-22 21:32N 43°31' W 001°34'2 1.6
2014-Jul-22 20:33N 43°30' W 001°36'5 4.7
2014-Jul-22 19:33N 43°27' W 001°42'  
Track history (hours):
 
Tides and Currents Weather Stations Pressure Air Temp Water Temp Dewpoint Dewpoint Depression Visibility Wind Speed Wind Dir Waves Ship Positions

F/V Attalaya Berria

Last reported at 2014-Aug-01 15:14 UTC. Time now 2014-Aug-01 22:41 UTC.
Position N 43°23' W 001°48'.

Length 26 m.

Type: Fishing. MMSI: 228315000.

Date/timePositionNaut miles runAvg speedWind from/ knotsBaromVisibWave heightAir tempDewpointWater temp
2014-Aug-01 15:14N 43°23' W 001°48'0 0.0
2014-Aug-01 04:26N 43°23' W 001°47'0 0.2
2014-Aug-01 03:32N 43°23' W 001°47'0 0.2
2014-Aug-01 02:34N 43°23' W 001°47'0 0.1
2014-Aug-01 01:32N 43°23' W 001°47'0 0.4
2014-Aug-01 00:33N 43°23' W 001°47'0 0.0
2014-Jul-31 23:34N 43°23' W 001°47'0 0.0
2014-Jul-31 22:34N 43°23' W 001°47'0 0.0
2014-Jul-31 21:33N 43°23' W 001°47'0 0.0
2014-Jul-31 20:33N 43°23' W 001°47'0 0.0
2014-Jul-31 19:33N 43°23' W 001°47'0 0.1
2014-Jul-31 18:32N 43°23' W 001°47'5 4.0
2014-Jul-31 17:10N 43°23' W 001°40'0 0.1
2014-Jul-31 16:33N 43°23' W 001°40'1 0.9
2014-Jul-31 15:32N 43°24' W 001°41'6 6.0
2014-Jul-31 14:32N 43°30' W 001°39'6 0.8
2014-Jul-31 06:24N 43°25' W 001°46'5 3.8
2014-Jul-31 05:08N 43°23' W 001°40'0 0.1
2014-Jul-31 04:30N 43°23' W 001°40'0 0.4
2014-Jul-31 03:33N 43°23' W 001°40'5 5.2
2014-Jul-31 02:34N 43°23' W 001°47'0 0.3
2014-Jul-31 01:33N 43°23' W 001°47'0 0.2
2014-Jul-31 00:33N 43°23' W 001°47'0 0.1
2014-Jul-30 23:31N 43°23' W 001°47'0 0.0
2014-Jul-30 22:33N 43°23' W 001°47'0 0.0
2014-Jul-30 21:33N 43°23' W 001°47'0 0.0
2014-Jul-30 20:32N 43°23' W 001°47'  
2014-Jul-28 05:33N 43°23' W 001°47'  
2014-Jul-24 05:33N 43°24' W 001°49'6 1.8
2014-Jul-24 02:07N 43°28' W 001°42'1 1.1
2014-Jul-24 01:33N 43°28' W 001°42'5 4.9
2014-Jul-24 00:33N 43°30' W 001°36'1 0.6
2014-Jul-23 23:33N 43°31' W 001°35'0 0.3
2014-Jul-23 22:33N 43°31' W 001°35'1 0.5
2014-Jul-23 21:33N 43°30' W 001°35'4 1.5
2014-Jul-23 19:12N 43°28' W 001°39'3 5.2
2014-Jul-23 18:33N 43°26' W 001°43'4 0.4
2014-Jul-23 08:33N 43°23' W 001°47'2 0.3
2014-Jul-23 03:05N 43°25' W 001°48'510.1
2014-Jul-23 02:32N 43°28' W 001°42'0 0.4
2014-Jul-23 01:33N 43°28' W 001°41'0 0.3
2014-Jul-23 00:33N 43°28' W 001°42'2 1.8
2014-Jul-22 23:33N 43°26' W 001°40'5 4.6
2014-Jul-22 22:33N 43°29' W 001°36'2 1.9
2014-Jul-22 21:32N 43°31' W 001°34'2 1.6
2014-Jul-22 20:33N 43°30' W 001°36'5 4.7
2014-Jul-22 19:33N 43°27' W 001°42'  

Dump ship's entire track history